Point Lay Lrrs Airport Point Lay US
ICAO: PPIZ
IATA:
Category: Medium
Scheduled Services:

Elevation: 22 ft
TransAlt. 18000 ft.

Airport Communications:
AWOS 3:135.65
ANCHORAGE CNTR:119.65
CTAF:122.4
FAIRBANKS RDO:122.4
MISC:122.8
UNICOM:126.2

PPIZ Zoom In..

If you have problems with the map follow the link
https://www.worldairports.se/pages/airport.php?
ICAO=PPIZ

Runways:

(A) RW 05 length 4500 ft width 100 ft
---- / hdg 54

(B) RW 23 length 4500 ft width 100 ft
---- / hdg 234

Location; PPIZ
Day. 22 / Time. 11.56 Zulu
* Altimeter: 29.66
* Temperature: -17° c. -1.4°f.
* Wind from: 290° Speed 07 kn.
Dewpoint: -19° c.
Visibility: 10 Statute Miles.
Clouds: Overcast 1700 ft.

PPIZ 221156Z AUTO 29007KT 10SM OVC017 M17/M19 A2966 RMK AO2 SLP046 60000 T11721194 11128 21172 51014 FZRANO


Wind From 290°
Speed 07 kn.

 
 
jpsmedia worldairports.se 2020   terms of use